createdAt,value
2023-06-10T00:00:53.959Z,42.76
2023-06-10T00:01:54.975Z,40.94
2023-06-10T00:02:55.058Z,42.11
2023-06-10T00:03:54.270Z,39.67
2023-06-10T00:04:54.992Z,39.36
2023-06-10T00:05:53.950Z,38.81
2023-06-10T00:06:54.943Z,42.06
2023-06-10T00:07:53.917Z,35.40
2023-06-10T00:08:54.913Z,40.37
2023-06-10T00:09:54.917Z,37.47
2023-06-10T00:10:54.934Z,36.72
2023-06-10T00:11:54.889Z,38.12
2023-06-10T00:12:54.896Z,35.95
2023-06-10T00:13:54.879Z,35.59
2023-06-10T00:14:54.874Z,37.06
2023-06-10T00:15:53.908Z,40.44
2023-06-10T00:16:54.888Z,38.10
2023-06-10T00:17:54.932Z,36.77
2023-06-10T00:18:54.890Z,39.52
2023-06-10T00:19:54.856Z,37.43
2023-06-10T00:20:54.852Z,39.14
2023-06-10T00:21:57.339Z,38.97
2023-06-10T00:22:54.916Z,41.92
2023-06-10T00:23:54.969Z,42.18
2023-06-10T00:24:54.900Z,36.99
2023-06-10T00:25:54.940Z,39.12
2023-06-10T00:26:54.893Z,38.65
2023-06-10T00:27:54.873Z,37.62
2023-06-10T00:28:53.852Z,40.30
2023-06-10T00:29:53.855Z,42.41
2023-06-10T00:30:53.844Z,37.57
2023-06-10T00:31:54.881Z,35.80
2023-06-10T00:32:54.920Z,38.60
2023-06-10T00:33:54.851Z,40.47
2023-06-10T00:34:54.824Z,37.43
2023-06-10T00:35:53.817Z,38.28
2023-06-10T00:36:54.808Z,37.39
2023-06-10T00:37:54.827Z,38.30
2023-06-10T00:38:54.803Z,37.57
2023-06-10T00:39:54.793Z,40.24
2023-06-10T00:40:54.801Z,42.35
2023-06-10T00:41:54.772Z,39.30
2023-06-10T00:42:54.775Z,40.94
2023-06-10T00:43:53.754Z,39.53
2023-06-10T00:44:54.821Z,43.33
2023-06-10T00:45:53.752Z,39.28
2023-06-10T00:46:54.772Z,38.78
2023-06-10T00:47:54.834Z,39.80
2023-06-10T00:48:53.768Z,38.68
2023-06-10T00:49:54.793Z,41.80
2023-06-10T00:50:54.789Z,38.25
2023-06-10T00:51:54.811Z,39.17
2023-06-10T00:52:55.801Z,36.29
2023-06-10T00:53:53.967Z,37.68
2023-06-10T00:54:54.966Z,40.57
2023-06-10T00:55:55.044Z,41.25
2023-06-10T00:56:55.093Z,43.69
2023-06-10T00:57:55.096Z,42.38
2023-06-10T00:58:55.203Z,38.36
2023-06-10T00:59:55.225Z,35.47
2023-06-10T01:00:54.268Z,37.16
2023-06-10T01:01:55.296Z,39.92
2023-06-10T01:02:54.426Z,38.69
2023-06-10T01:03:54.402Z,40.38
2023-06-10T01:04:54.434Z,37.95
2023-06-10T01:05:55.835Z,38.26
2023-06-10T01:06:54.611Z,38.93
2023-06-10T01:07:55.543Z,38.66
2023-06-10T01:08:55.599Z,38.71
2023-06-10T01:09:55.669Z,37.28
2023-06-10T01:10:55.662Z,38.38
2023-06-10T01:11:55.762Z,40.29
2023-06-10T01:12:55.794Z,41.38
2023-06-10T01:13:55.795Z,39.60
2023-06-10T01:14:55.919Z,40.55
2023-06-10T01:15:55.904Z,38.72
2023-06-10T01:16:56.046Z,38.34
2023-06-10T01:17:56.061Z,36.81
2023-06-10T01:18:56.091Z,37.15
2023-06-10T01:19:55.106Z,41.70
2023-06-10T01:20:56.127Z,41.83
2023-06-10T01:21:55.182Z,39.58
2023-06-10T01:22:56.244Z,37.29
2023-06-10T01:23:55.502Z,37.33
2023-06-10T01:24:56.362Z,34.48
2023-06-10T01:25:56.383Z,36.04
2023-06-10T01:26:56.416Z,37.59
2023-06-10T01:27:55.494Z,40.64
2023-06-10T01:28:56.517Z,37.01
2023-06-10T01:29:56.576Z,36.56
2023-06-10T01:30:56.669Z,37.26
2023-06-10T01:31:56.715Z,37.40
2023-06-10T01:32:55.722Z,38.12
2023-06-10T01:33:56.727Z,38.53
2023-06-10T01:34:55.741Z,39.45
2023-06-10T01:35:55.825Z,40.15
2023-06-10T01:36:56.840Z,37.40
2023-06-10T01:37:55.847Z,39.41
2023-06-10T01:38:56.954Z,38.30
2023-06-10T01:39:55.983Z,41.79
2023-06-10T01:40:57.007Z,36.40
2023-06-10T01:41:56.045Z,37.85
2023-06-10T01:42:56.100Z,40.10
2023-06-10T01:43:57.157Z,39.96
2023-06-10T01:44:57.180Z,40.83
2023-06-10T01:45:57.230Z,40.69
2023-06-10T01:46:57.411Z,42.76
2023-06-10T01:47:57.390Z,41.26
2023-06-10T01:48:57.353Z,38.40
2023-06-10T01:49:57.431Z,42.71
2023-06-10T01:50:57.463Z,40.92
2023-06-10T01:51:56.470Z,42.03
2023-06-10T01:52:57.577Z,38.63
2023-06-10T01:53:57.546Z,37.17
2023-06-10T01:54:57.593Z,40.14
2023-06-10T01:55:57.663Z,40.07
2023-06-10T01:56:57.679Z,40.92
2023-06-10T01:57:57.698Z,36.80
2023-06-10T01:58:57.717Z,37.94
2023-06-10T01:59:57.776Z,40.25
2023-06-10T02:00:56.930Z,36.04
2023-06-10T02:01:57.829Z,39.93
2023-06-10T02:02:57.932Z,37.97
2023-06-10T02:03:58.033Z,40.69
2023-06-10T02:04:57.930Z,38.82
2023-06-10T02:05:57.979Z,36.17
2023-06-10T02:06:58.068Z,36.82
2023-06-10T02:07:58.040Z,39.30
2023-06-10T02:08:58.179Z,35.71
2023-06-10T02:09:58.182Z,37.00
2023-06-10T02:10:58.206Z,35.58
2023-06-10T02:11:58.256Z,37.03
2023-06-10T02:12:57.279Z,34.99
2023-06-10T02:13:58.294Z,37.38
2023-06-10T02:14:58.342Z,37.72
2023-06-10T02:15:57.446Z,34.84
2023-06-10T02:16:57.524Z,36.09
2023-06-10T02:17:58.475Z,33.83
2023-06-10T02:18:58.601Z,35.49
2023-06-10T02:19:58.584Z,34.02
2023-06-10T02:20:58.589Z,32.67
2023-06-10T02:21:58.699Z,37.09
2023-06-10T02:22:58.668Z,37.18
2023-06-10T02:23:58.735Z,34.93
2023-06-10T02:24:58.786Z,35.15
2023-06-10T02:25:58.798Z,32.39
2023-06-10T02:26:58.822Z,34.90
2023-06-10T02:27:58.831Z,35.50
2023-06-10T02:28:58.905Z,33.52
2023-06-10T02:29:57.900Z,35.09
2023-06-10T02:30:58.927Z,36.26
2023-06-10T02:31:58.986Z,36.33
2023-06-10T02:32:59.009Z,36.65
2023-06-10T02:33:58.994Z,37.21
2023-06-10T02:34:58.089Z,35.45
2023-06-10T02:35:59.076Z,37.29
2023-06-10T02:36:59.144Z,39.15
2023-06-10T02:37:59.213Z,38.19
2023-06-10T02:38:59.213Z,35.44
2023-06-10T02:39:59.245Z,39.05
2023-06-10T02:40:59.269Z,38.88
2023-06-10T02:41:59.325Z,38.34
2023-06-10T02:42:58.386Z,40.13
2023-06-10T02:43:59.375Z,35.56
2023-06-10T02:44:59.420Z,39.08
2023-06-10T02:45:59.505Z,39.94
2023-06-10T02:46:59.473Z,36.72
2023-06-10T02:47:59.543Z,37.42
2023-06-10T02:48:59.493Z,34.75
2023-06-10T02:49:59.577Z,35.86
2023-06-10T02:50:59.584Z,37.02
2023-06-10T02:51:58.596Z,38.65
2023-06-10T02:52:59.622Z,39.77
2023-06-10T02:53:59.643Z,38.76
2023-06-10T02:54:59.781Z,36.32
2023-06-10T02:55:59.711Z,39.81
2023-06-10T02:56:59.766Z,36.56
2023-06-10T02:57:59.749Z,38.70
2023-06-10T02:58:59.784Z,34.80
2023-06-10T02:59:59.803Z,34.97
2023-06-10T03:00:59.868Z,37.56
2023-06-10T03:01:59.914Z,34.18
2023-06-10T03:02:59.882Z,36.17
2023-06-10T03:03:58.908Z,33.64
2023-06-10T03:05:00.048Z,36.05
2023-06-10T03:05:59.992Z,35.28
2023-06-10T03:07:00.014Z,35.44
2023-06-10T03:08:00.045Z,39.32
2023-06-10T03:09:00.057Z,35.94
2023-06-10T03:10:00.139Z,35.29
2023-06-10T03:11:00.089Z,37.13
2023-06-10T03:12:00.150Z,34.74
2023-06-10T03:13:00.129Z,36.77
2023-06-10T03:13:59.156Z,37.16
2023-06-10T03:15:00.188Z,36.74
2023-06-10T03:16:00.280Z,36.05
2023-06-10T03:17:00.204Z,33.89
2023-06-10T03:18:00.237Z,34.25
2023-06-10T03:18:59.315Z,33.18
2023-06-10T03:20:00.308Z,38.69
2023-06-10T03:21:00.351Z,35.27
2023-06-10T03:22:00.301Z,35.90
2023-06-10T03:23:00.355Z,38.15
2023-06-10T03:23:59.417Z,37.89
2023-06-10T03:25:00.423Z,37.79
2023-06-10T03:26:00.447Z,32.60
2023-06-10T03:27:00.425Z,36.44
2023-06-10T03:28:00.488Z,35.75
2023-06-10T03:28:59.455Z,34.28
2023-06-10T03:29:59.472Z,33.02
2023-06-10T03:30:59.551Z,34.07
2023-06-10T03:31:59.497Z,35.62
2023-06-10T03:32:59.658Z,35.45
2023-06-10T03:34:00.576Z,39.39
2023-06-10T03:35:00.574Z,37.96
2023-06-10T03:36:00.602Z,36.47
2023-06-10T03:37:00.638Z,37.69
2023-06-10T03:38:00.592Z,37.50
2023-06-10T03:39:00.650Z,35.57
2023-06-10T03:39:59.633Z,37.10
2023-06-10T03:41:00.713Z,36.08
2023-06-10T03:41:59.723Z,37.14
2023-06-10T03:43:00.662Z,37.78
2023-06-10T03:43:59.691Z,37.81
2023-06-10T03:45:00.772Z,36.21
2023-06-10T03:46:00.737Z,39.37
2023-06-10T03:46:59.745Z,38.62
2023-06-10T03:47:59.838Z,35.55
2023-06-10T03:48:59.778Z,35.70
2023-06-10T03:50:00.761Z,37.03
2023-06-10T03:51:00.780Z,34.40
2023-06-10T03:52:00.803Z,34.58
2023-06-10T03:52:59.827Z,36.10
2023-06-10T03:54:00.820Z,37.32
2023-06-10T03:55:00.945Z,36.55
2023-06-10T03:55:59.865Z,37.53
2023-06-10T03:56:59.872Z,37.74
2023-06-10T03:57:59.879Z,38.25
2023-06-10T03:59:00.974Z,34.33
2023-06-10T04:00:00.938Z,34.54
2023-06-10T04:00:59.940Z,34.89
2023-06-10T04:01:59.992Z,35.85
2023-06-10T04:03:01.017Z,35.66
2023-06-10T04:04:00.937Z,32.18
2023-06-10T04:04:59.964Z,35.27
2023-06-10T04:06:01.037Z,29.36
2023-06-10T04:07:01.003Z,31.34
2023-06-10T04:08:01.021Z,34.24
2023-06-10T04:09:01.056Z,33.27
2023-06-10T04:10:01.083Z,32.59
2023-06-10T04:11:00.137Z,32.56
2023-06-10T04:12:01.118Z,34.66
2023-06-10T04:13:00.140Z,32.41
2023-06-10T04:14:01.099Z,32.77
2023-06-10T04:15:01.117Z,29.75
2023-06-10T04:16:01.123Z,31.85
2023-06-10T04:17:01.163Z,32.39
2023-06-10T04:18:01.232Z,26.22
2023-06-10T04:19:01.186Z,29.19
2023-06-10T04:20:01.246Z,31.47
2023-06-10T04:21:00.199Z,29.37
2023-06-10T04:22:00.243Z,30.87
2023-06-10T04:23:01.238Z,28.96
2023-06-10T04:24:00.271Z,31.29
2023-06-10T04:25:01.259Z,30.62
2023-06-10T04:26:00.250Z,30.32
2023-06-10T04:27:00.300Z,30.70
2023-06-10T04:28:01.326Z,29.88
2023-06-10T04:29:01.382Z,30.24
2023-06-10T04:30:01.360Z,27.06
2023-06-10T04:31:01.389Z,31.81
2023-06-10T04:32:01.434Z,30.42
2023-06-10T04:33:01.454Z,30.69
2023-06-10T04:34:01.455Z,31.35
2023-06-10T04:35:00.563Z,32.91
2023-06-10T04:36:01.555Z,31.20
2023-06-10T04:37:01.545Z,28.36
2023-06-10T04:38:00.584Z,32.90
2023-06-10T04:39:01.612Z,31.74
2023-06-10T04:40:00.678Z,28.37
2023-06-10T04:41:01.687Z,30.40
2023-06-10T04:42:01.713Z,28.28
2023-06-10T04:43:00.708Z,30.69
2023-06-10T04:44:01.731Z,30.36
2023-06-10T04:45:01.769Z,30.42
2023-06-10T04:46:00.844Z,29.66
2023-06-10T04:47:01.860Z,29.56
2023-06-10T04:48:01.918Z,31.97
2023-06-10T04:49:01.842Z,30.09
2023-06-10T04:50:01.923Z,29.23
2023-06-10T04:51:00.932Z,31.18
2023-06-10T04:52:01.955Z,31.78
2023-06-10T04:53:02.049Z,30.64
2023-06-10T04:54:02.020Z,28.03
2023-06-10T04:55:02.076Z,27.94
2023-06-10T04:56:02.124Z,30.76
2023-06-10T04:57:01.128Z,30.82
2023-06-10T04:58:02.178Z,26.85
2023-06-10T04:59:02.224Z,30.23
2023-06-10T05:00:01.325Z,31.28
2023-06-10T05:01:01.302Z,31.63
2023-06-10T05:02:02.355Z,26.19
2023-06-10T05:03:02.606Z,27.80
2023-06-10T05:04:02.456Z,28.96
2023-06-10T05:05:02.489Z,27.48
2023-06-10T05:06:01.530Z,28.52
2023-06-10T05:07:02.575Z,28.44
2023-06-10T05:08:02.624Z,28.99
2023-06-10T05:09:02.668Z,28.42
2023-06-10T05:10:01.710Z,33.02
2023-06-10T05:11:02.832Z,32.77
2023-06-10T05:12:02.805Z,30.54
2023-06-10T05:13:02.857Z,30.14
2023-06-10T05:14:02.917Z,33.48
2023-06-10T05:15:02.937Z,27.81
2023-06-10T05:16:02.074Z,31.05
2023-06-10T05:17:03.045Z,28.70
2023-06-10T05:18:03.151Z,28.93
2023-06-10T05:19:05.609Z,31.99
2023-06-10T05:20:03.112Z,32.22
2023-06-10T05:21:03.112Z,32.54
2023-06-10T05:22:02.136Z,32.34
2023-06-10T05:23:02.094Z,33.23
2023-06-10T05:24:02.196Z,31.63
2023-06-10T05:25:02.115Z,34.31
2023-06-10T05:26:03.084Z,33.04
2023-06-10T05:27:03.117Z,35.18
2023-06-10T05:28:02.167Z,34.88
2023-06-10T05:29:03.215Z,29.80
2023-06-10T05:30:03.248Z,29.31
2023-06-10T05:31:02.301Z,30.03
2023-06-10T05:32:03.384Z,29.48
2023-06-10T05:33:03.409Z,30.62
2023-06-10T05:34:02.432Z,28.90
2023-06-10T05:35:02.452Z,29.59
2023-06-10T05:36:03.493Z,29.57
2023-06-10T05:37:03.580Z,30.47
2023-06-10T05:38:04.085Z,28.79
2023-06-10T05:39:03.624Z,30.81
2023-06-10T05:40:02.738Z,30.42
2023-06-10T05:41:02.724Z,33.11
2023-06-10T05:42:03.752Z,30.21
2023-06-10T05:43:03.806Z,28.33
2023-06-10T05:44:03.851Z,33.13
2023-06-10T05:45:02.965Z,31.03
2023-06-10T05:46:04.015Z,32.38
2023-06-10T05:47:04.001Z,29.44
2023-06-10T05:48:04.072Z,30.98
2023-06-10T05:49:04.082Z,33.97
2023-06-10T05:50:04.131Z,33.30
2023-06-10T05:51:03.205Z,31.12
2023-06-10T05:52:03.200Z,31.48
2023-06-10T05:53:04.247Z,31.80
2023-06-10T05:54:04.315Z,32.82
2023-06-10T05:55:04.347Z,35.41
2023-06-10T05:56:04.386Z,34.74
2023-06-10T05:57:03.467Z,34.22
2023-06-10T05:58:03.466Z,36.58
2023-06-10T05:59:04.547Z,32.84
2023-06-10T06:00:04.581Z,32.98
2023-06-10T06:01:04.683Z,34.34
2023-06-10T06:02:03.749Z,34.17
2023-06-10T06:03:04.766Z,33.00
2023-06-10T06:04:04.748Z,35.13
2023-06-10T06:05:04.936Z,39.94
2023-06-10T06:06:03.838Z,37.37
2023-06-10T06:07:03.892Z,35.00
2023-06-10T06:08:04.959Z,38.16
2023-06-10T06:09:04.995Z,35.56
2023-06-10T06:10:04.057Z,37.04
2023-06-10T06:11:05.077Z,38.52
2023-06-10T06:12:05.102Z,35.28
2023-06-10T06:13:05.163Z,37.52
2023-06-10T06:14:05.223Z,36.52
2023-06-10T06:15:05.305Z,36.74
2023-06-10T06:16:04.313Z,36.47
2023-06-10T06:17:05.401Z,35.71
2023-06-10T06:18:04.455Z,39.96
2023-06-10T06:19:05.414Z,39.07
2023-06-10T06:20:05.495Z,36.03
2023-06-10T06:21:05.533Z,35.33
2023-06-10T06:22:05.618Z,37.10
2023-06-10T06:23:05.636Z,37.52
2023-06-10T06:24:05.767Z,36.75
2023-06-10T06:25:04.726Z,39.32
2023-06-10T06:26:08.718Z,36.92
2023-06-10T06:27:05.736Z,37.22
2023-06-10T06:28:05.701Z,38.03
2023-06-10T06:29:04.690Z,37.76
2023-06-10T06:30:04.754Z,39.08
2023-06-10T06:31:05.722Z,38.10
2023-06-10T06:32:05.673Z,39.74
2023-06-10T06:33:04.844Z,37.02
2023-06-10T06:34:05.658Z,39.34
2023-06-10T06:35:05.633Z,40.57
2023-06-10T06:36:05.672Z,41.37
2023-06-10T06:37:05.640Z,40.82
2023-06-10T06:38:05.656Z,38.57
2023-06-10T06:39:04.647Z,41.19
2023-06-10T06:40:05.620Z,41.08
2023-06-10T06:41:04.647Z,39.45
2023-06-10T06:42:04.615Z,39.69
2023-06-10T06:43:05.611Z,40.75
2023-06-10T06:44:05.730Z,43.03
2023-06-10T06:45:05.594Z,41.65
2023-06-10T06:46:05.597Z,40.46
2023-06-10T06:47:05.575Z,44.19
2023-06-10T06:48:05.652Z,40.01
2023-06-10T06:49:05.563Z,43.27
2023-06-10T06:50:04.539Z,40.78
2023-06-10T06:51:05.602Z,43.10
2023-06-10T06:52:05.545Z,42.70
2023-06-10T06:53:05.524Z,40.96
2023-06-10T06:54:05.570Z,41.87
2023-06-10T06:55:05.625Z,42.53
2023-06-10T06:56:05.673Z,42.33
2023-06-10T06:57:05.666Z,42.68
2023-06-10T06:58:05.711Z,42.32
2023-06-10T06:59:05.798Z,40.79
2023-06-10T07:00:05.748Z,41.70
2023-06-10T07:01:05.797Z,43.44
2023-06-10T07:02:04.799Z,42.21
2023-06-10T07:03:05.911Z,43.65
2023-06-10T07:04:04.867Z,43.88
2023-06-10T07:05:05.968Z,41.31
2023-06-10T07:06:05.933Z,44.32
2023-06-10T07:07:04.952Z,42.52
2023-06-10T07:08:05.954Z,44.09
2023-06-10T07:09:05.015Z,46.13
2023-06-10T07:10:06.021Z,43.25
2023-06-10T07:11:05.051Z,43.90
2023-06-10T07:12:06.087Z,43.21
2023-06-10T07:13:06.083Z,42.25
2023-06-10T07:14:06.111Z,43.45
2023-06-10T07:15:06.226Z,43.82
2023-06-10T07:16:05.256Z,45.35
2023-06-10T07:17:06.285Z,39.85
2023-06-10T07:18:06.235Z,43.89
2023-06-10T07:19:06.587Z,42.64
2023-06-10T07:20:06.248Z,44.74
2023-06-10T07:21:05.278Z,43.79
2023-06-10T07:22:06.333Z,44.09
2023-06-10T07:23:06.330Z,42.32
2023-06-10T07:24:06.355Z,41.52
2023-06-10T07:25:06.492Z,43.07
2023-06-10T07:26:05.367Z,44.10
2023-06-10T07:27:06.378Z,43.80
2023-06-10T07:28:05.409Z,44.46
2023-06-10T07:29:06.401Z,43.11
2023-06-10T07:30:05.405Z,43.33
2023-06-10T07:31:06.453Z,42.19
2023-06-10T07:32:06.426Z,43.21
2023-06-10T07:33:06.465Z,43.93
2023-06-10T07:34:06.438Z,40.58
2023-06-10T07:35:05.453Z,40.41
2023-06-10T07:36:06.480Z,43.75
2023-06-10T07:37:06.679Z,42.89
2023-06-10T07:38:06.506Z,43.17
2023-06-10T07:39:06.502Z,44.21
2023-06-10T07:40:06.541Z,42.40
2023-06-10T07:41:06.559Z,42.85
2023-06-10T07:42:06.580Z,44.06
2023-06-10T07:43:06.604Z,42.08
2023-06-10T07:44:06.627Z,40.51
2023-06-10T07:45:06.862Z,41.85
2023-06-10T07:46:06.775Z,39.60
2023-06-10T07:47:06.632Z,35.30
2023-06-10T07:48:06.707Z,35.73
2023-06-10T07:49:06.651Z,32.88
2023-06-10T07:50:06.638Z,31.16
2023-06-10T07:51:06.677Z,35.26
2023-06-10T07:52:06.752Z,33.79
2023-06-10T07:53:05.706Z,38.24
2023-06-10T07:54:06.697Z,34.13
2023-06-10T07:55:06.795Z,37.16
2023-06-10T07:56:05.698Z,35.20
2023-06-10T07:57:05.864Z,37.28
2023-06-10T07:58:05.763Z,34.99
2023-06-10T07:59:05.781Z,35.12
2023-06-10T08:00:06.799Z,36.65
2023-06-10T08:01:05.781Z,34.05
2023-06-10T08:02:05.808Z,32.10
2023-06-10T08:03:06.893Z,34.47
2023-06-10T08:04:06.930Z,31.08
2023-06-10T08:05:06.924Z,32.21
2023-06-10T08:06:05.856Z,30.73
2023-06-10T08:07:05.869Z,30.99
2023-06-10T08:08:06.912Z,31.56
2023-06-10T08:09:06.909Z,33.68
2023-06-10T08:10:05.909Z,33.16
2023-06-10T08:11:05.935Z,30.87
2023-06-10T08:12:06.987Z,29.59
2023-06-10T08:13:06.978Z,32.18
2023-06-10T08:14:06.000Z,31.38
2023-06-10T08:15:07.157Z,29.80
2023-06-10T08:16:06.066Z,29.71
2023-06-10T08:17:07.100Z,30.32
2023-06-10T08:18:06.134Z,30.04
2023-06-10T08:19:07.114Z,33.17
2023-06-10T08:20:07.117Z,31.06
2023-06-10T08:21:06.166Z,32.76
2023-06-10T08:22:06.218Z,31.58
2023-06-10T08:23:07.281Z,30.68
2023-06-10T08:24:07.417Z,29.73
2023-06-10T08:25:07.675Z,30.37
2023-06-10T08:26:07.428Z,31.97
2023-06-10T08:27:07.446Z,28.55
2023-06-10T08:28:06.529Z,28.26
2023-06-10T08:29:07.525Z,28.47
2023-06-10T08:30:07.555Z,26.22
2023-06-10T08:31:07.615Z,28.03
2023-06-10T08:32:07.723Z,25.00
2023-06-10T08:33:07.703Z,25.76
2023-06-10T08:34:07.691Z,25.29
2023-06-10T08:35:07.957Z,27.41
2023-06-10T08:36:07.819Z,27.18
2023-06-10T08:37:07.827Z,29.66
2023-06-10T08:38:07.942Z,28.75
2023-06-10T08:39:07.925Z,27.13
2023-06-10T08:40:07.973Z,27.32
2023-06-10T08:41:08.075Z,26.76
2023-06-10T08:42:08.038Z,31.23
2023-06-10T08:43:08.175Z,28.87
2023-06-10T08:44:07.124Z,27.00
2023-06-10T08:45:07.305Z,29.58
2023-06-10T08:46:07.202Z,29.10
2023-06-10T08:47:08.185Z,28.21
2023-06-10T08:48:08.328Z,25.77
2023-06-10T08:49:08.420Z,26.04
2023-06-10T08:50:10.800Z,27.80
2023-06-10T08:51:08.298Z,28.05
2023-06-10T08:52:08.313Z,28.26
2023-06-10T08:53:08.266Z,27.95
2023-06-10T08:54:08.271Z,29.03
2023-06-10T08:55:08.511Z,30.62
2023-06-10T08:56:08.258Z,29.83
2023-06-10T08:57:08.347Z,29.03
2023-06-10T08:58:08.380Z,30.79
2023-06-10T08:59:07.364Z,30.00
2023-06-10T09:00:07.665Z,30.97
2023-06-10T09:01:07.498Z,30.62
2023-06-10T09:02:08.483Z,31.30
2023-06-10T09:03:08.530Z,32.13
2023-06-10T09:04:08.617Z,30.86
2023-06-10T09:05:07.552Z,30.31
2023-06-10T09:06:08.592Z,28.43
2023-06-10T09:07:07.652Z,28.81
2023-06-10T09:08:08.716Z,30.18
2023-06-10T09:09:08.717Z,27.64
2023-06-10T09:10:09.384Z,28.80
2023-06-10T09:11:08.821Z,26.45
2023-06-10T09:12:08.910Z,27.14
2023-06-10T09:13:08.913Z,27.33
2023-06-10T09:14:08.987Z,27.05
2023-06-10T09:15:09.028Z,26.81
2023-06-10T09:16:08.103Z,25.00
2023-06-10T09:17:09.087Z,27.87
2023-06-10T09:18:09.239Z,30.39
2023-06-10T09:19:09.327Z,28.55
2023-06-10T09:20:11.096Z,29.69
2023-06-10T09:21:09.266Z,30.24
2023-06-10T09:22:09.218Z,32.79
2023-06-10T09:23:08.224Z,30.66
2023-06-10T09:24:08.273Z,29.92
2023-06-10T09:25:08.257Z,30.87
2023-06-10T09:26:10.735Z,33.27
2023-06-10T09:27:09.521Z,39.82
2023-06-10T09:28:09.486Z,36.60
2023-06-10T09:29:09.520Z,31.61
2023-06-10T09:30:09.048Z,30.22
2023-06-10T09:31:08.798Z,31.05
2023-06-10T09:32:10.645Z,29.34
2023-06-10T09:33:08.772Z,31.40
2023-06-10T09:34:09.766Z,30.76
2023-06-10T09:35:09.796Z,35.18
2023-06-10T09:36:09.828Z,36.43
2023-06-10T09:37:09.869Z,31.73
2023-06-10T09:38:10.843Z,36.14
2023-06-10T09:39:08.987Z,33.86
2023-06-10T09:40:10.384Z,34.01
2023-06-10T09:41:10.085Z,33.46
2023-06-10T09:42:10.109Z,35.64
2023-06-10T09:43:10.099Z,33.51
2023-06-10T09:44:10.511Z,32.56
2023-06-10T09:45:10.249Z,30.53
2023-06-10T09:46:11.523Z,32.22
2023-06-10T09:47:10.241Z,37.00
2023-06-10T09:48:10.252Z,41.06
2023-06-10T09:49:10.224Z,36.62
2023-06-10T09:50:11.314Z,37.43
2023-06-10T09:51:10.311Z,36.63
2023-06-10T09:52:10.247Z,37.40
2023-06-10T09:53:10.236Z,36.87
2023-06-10T09:54:10.246Z,36.94
2023-06-10T09:55:10.254Z,38.61
2023-06-10T09:56:10.962Z,38.39
2023-06-10T09:57:10.393Z,37.37
2023-06-10T09:58:10.432Z,37.02
2023-06-10T09:59:10.428Z,38.00
2023-06-10T10:00:10.655Z,31.97
2023-06-10T10:01:10.603Z,33.47
2023-06-10T10:02:11.239Z,31.54
2023-06-10T10:03:10.653Z,32.19
2023-06-10T10:04:10.648Z,29.65
2023-06-10T10:05:11.108Z,27.70
2023-06-10T10:06:10.831Z,27.01
2023-06-10T10:07:10.785Z,26.38
2023-06-10T10:08:10.863Z,26.65
2023-06-10T10:09:10.916Z,25.41
2023-06-10T10:10:09.909Z,29.28
2023-06-10T10:11:11.007Z,35.39
2023-06-10T10:12:09.990Z,32.65
2023-06-10T10:13:11.031Z,31.57
2023-06-10T10:14:10.956Z,31.00
2023-06-10T10:15:11.366Z,26.22
2023-06-10T10:16:11.254Z,25.15
2023-06-10T10:17:11.320Z,31.33
2023-06-10T10:18:11.420Z,25.36
2023-06-10T10:19:10.315Z,30.69
2023-06-10T10:20:11.340Z,32.47
2023-06-10T10:21:11.380Z,32.86
2023-06-10T10:22:11.450Z,27.89
2023-06-10T10:23:11.524Z,30.72
2023-06-10T10:24:11.639Z,31.74
2023-06-10T10:25:11.862Z,29.89
2023-06-10T10:26:10.917Z,26.86
2023-06-10T10:27:11.709Z,27.95
2023-06-10T10:28:11.730Z,30.12
2023-06-10T10:29:11.720Z,29.36
2023-06-10T10:30:11.795Z,25.31
2023-06-10T10:31:11.947Z,28.11
2023-06-10T10:32:11.971Z,27.10
2023-06-10T10:33:11.985Z,27.59
2023-06-10T10:34:11.143Z,26.76
2023-06-10T10:35:11.240Z,27.84
2023-06-10T10:36:12.041Z,26.19
2023-06-10T10:37:12.136Z,27.08
2023-06-10T10:38:12.142Z,27.02
2023-06-10T10:39:11.156Z,25.87
2023-06-10T10:40:12.199Z,27.30
2023-06-10T10:41:12.229Z,28.85
2023-06-10T10:42:12.328Z,28.90
2023-06-10T10:43:12.354Z,25.88
2023-06-10T10:44:12.411Z,27.42
2023-06-10T10:45:12.703Z,28.23
2023-06-10T10:46:12.568Z,26.67
2023-06-10T10:47:12.465Z,27.68
2023-06-10T10:48:12.580Z,26.31
2023-06-10T10:49:12.615Z,27.59
2023-06-10T10:50:14.819Z,25.95
2023-06-10T10:51:11.630Z,31.47
2023-06-10T10:52:11.629Z,30.15
2023-06-10T10:53:12.588Z,29.09
2023-06-10T10:54:12.594Z,30.60
2023-06-10T10:55:11.658Z,26.65
2023-06-10T10:56:14.534Z,25.06
2023-06-10T10:57:11.621Z,25.30
2023-06-10T10:58:12.531Z,26.08
2023-06-10T10:59:12.536Z,28.21
2023-06-10T11:00:12.598Z,28.45
2023-06-10T11:01:12.520Z,30.79
2023-06-10T11:02:12.602Z,31.02
2023-06-10T11:03:12.679Z,29.56
2023-06-10T11:04:12.575Z,30.08
2023-06-10T11:05:12.057Z,25.00
2023-06-10T11:06:12.541Z,26.02
2023-06-10T11:07:12.470Z,29.43
2023-06-10T11:08:11.530Z,30.97
2023-06-10T11:09:11.472Z,31.33
2023-06-10T11:10:12.436Z,29.36
2023-06-10T11:11:12.436Z,28.48
2023-06-10T11:12:12.446Z,27.36
2023-06-10T11:13:11.419Z,27.24
2023-06-10T11:14:11.435Z,27.33
2023-06-10T11:15:11.685Z,27.54
2023-06-10T11:16:12.470Z,30.27
2023-06-10T11:17:11.406Z,29.28
2023-06-10T11:18:11.417Z,32.82
2023-06-10T11:19:12.389Z,36.96
2023-06-10T11:20:12.470Z,37.61
2023-06-10T11:21:12.395Z,33.12
2023-06-10T11:22:12.379Z,32.59
2023-06-10T11:23:12.375Z,37.18
2023-06-10T11:24:12.494Z,31.50
2023-06-10T11:25:12.485Z,29.86
2023-06-10T11:26:12.411Z,29.65
2023-06-10T11:27:12.422Z,29.50
2023-06-10T11:28:12.534Z,28.50
2023-06-10T11:29:12.541Z,30.07
2023-06-10T11:30:12.530Z,29.52
2023-06-10T11:31:12.592Z,30.30
2023-06-10T11:32:11.638Z,29.96
2023-06-10T11:33:12.744Z,25.34
2023-06-10T11:34:11.856Z,26.26
2023-06-10T11:35:12.937Z,26.43
2023-06-10T11:36:11.785Z,28.15
2023-06-10T11:37:12.800Z,28.31
2023-06-10T11:38:13.586Z,27.12
2023-06-10T11:39:12.815Z,28.51
2023-06-10T11:40:11.847Z,30.79
2023-06-10T11:41:12.824Z,27.34
2023-06-10T11:42:12.803Z,28.43
2023-06-10T11:43:11.809Z,25.81
2023-06-10T11:44:13.329Z,26.90
2023-06-10T11:45:12.059Z,27.02
2023-06-10T11:46:12.766Z,27.46
2023-06-10T11:47:12.762Z,27.39
2023-06-10T11:48:12.808Z,23.21
2023-06-10T11:49:11.777Z,23.44
2023-06-10T11:50:12.741Z,26.80
2023-06-10T11:51:11.763Z,25.06
2023-06-10T11:52:12.719Z,30.37
2023-06-10T11:53:12.733Z,31.18
2023-06-10T11:54:11.748Z,28.00
2023-06-10T11:55:13.063Z,28.09
2023-06-10T11:56:11.694Z,29.40
2023-06-10T11:57:11.701Z,30.61
2023-06-10T11:58:12.695Z,29.43
2023-06-10T11:59:12.672Z,31.93
2023-06-10T12:00:12.670Z,35.98
2023-06-10T12:01:13.289Z,32.71
2023-06-10T12:02:12.671Z,36.28
2023-06-10T12:03:12.866Z,33.38
2023-06-10T12:04:12.641Z,34.39
2023-06-10T12:05:11.939Z,36.16
2023-06-10T12:06:12.620Z,35.20
2023-06-10T12:07:12.618Z,34.23
2023-06-10T12:08:12.620Z,36.26
2023-06-10T12:09:23.484Z,36.37
2023-06-10T12:11:12.603Z,36.89
2023-06-10T12:12:11.585Z,38.47
2023-06-10T12:13:12.572Z,38.04
2023-06-10T12:14:11.572Z,38.34
2023-06-10T12:15:11.830Z,36.84
2023-06-10T12:16:12.562Z,38.39
2023-06-10T12:17:11.552Z,35.48
2023-06-10T12:18:11.554Z,33.00
2023-06-10T12:19:12.540Z,33.86
2023-06-10T12:20:12.505Z,31.42
2023-06-10T12:21:12.539Z,32.07
2023-06-10T12:22:11.509Z,31.70
2023-06-10T12:23:12.489Z,30.78
2023-06-10T12:24:12.907Z,31.72
2023-06-10T12:25:12.998Z,26.94
2023-06-10T12:26:12.483Z,30.66
2023-06-10T12:27:12.488Z,28.24
2023-06-10T12:28:12.527Z,32.34
2023-06-10T12:29:12.448Z,31.91
2023-06-10T12:30:12.771Z,32.43
2023-06-10T12:31:12.439Z,31.57
2023-06-10T12:32:11.555Z,29.85
2023-06-10T12:33:11.477Z,30.20
2023-06-10T12:34:12.440Z,32.08
2023-06-10T12:35:12.670Z,27.79
2023-06-10T12:36:12.441Z,31.09
2023-06-10T12:37:11.440Z,29.29
2023-06-10T12:38:11.478Z,31.33
2023-06-10T12:39:12.580Z,31.41
2023-06-10T12:40:11.524Z,31.69
2023-06-10T12:41:12.625Z,33.69
2023-06-10T12:42:12.687Z,33.52
2023-06-10T12:43:12.625Z,34.39
2023-06-10T12:44:12.664Z,33.07
2023-06-10T12:45:12.913Z,34.54
2023-06-10T12:46:12.852Z,37.17
2023-06-10T12:47:12.795Z,34.11
2023-06-10T12:48:12.917Z,35.35
2023-06-10T12:49:11.861Z,36.79
2023-06-10T12:50:13.092Z,35.47
2023-06-10T12:51:11.951Z,33.84
2023-06-10T12:52:12.988Z,36.46
2023-06-10T12:53:13.019Z,36.29
2023-06-10T12:54:13.090Z,36.15